Time;durP1;ratioP1;P1;durP2;ratioP2;P2;SDS_P1;SDS_P2;PMS_P1;PMS_P2;Temp;Humidity;BMP_temperature;BMP_pressure;BME280_temperature;BME280_humidity;BME280_pressure;Samples;Min_cycle;Max_cycle;Signal;HPM_P1;HPM_P2
2022/08/28 00:00:17;;;;;;;2.45;2.35;;;;;;;;;;1875365;76;26250;-47
2022/08/28 00:02:45;;;;;;;2.52;2.42;;;;;;;;;;1865608;76;26804;-45
2022/08/28 00:05:13;;;;;;;2.20;2.10;;;;;;;;;;1864358;76;26319;-44
2022/08/28 00:07:40;;;;;;;2.30;2.20;;;;;;;;;;1878712;76;26760;-45
2022/08/28 00:10:08;;;;;;;2.30;2.10;;;;;;;;;;1868678;76;26214;-45
2022/08/28 00:12:37;;;;;;;2.10;2.10;;;;;;;;;;1869556;76;26701;-45
2022/08/28 00:15:05;;;;;;;2.30;2.20;;;;;;;;;;1873072;76;26268;-45
2022/08/28 00:17:32;;;;;;;2.15;2.10;;;;;;;;;;1874026;75;26672;-47
2022/08/28 00:19:59;;;;;;;2.20;2.10;;;;;;;;;;1850573;76;26329;-47
2022/08/28 00:22:27;;;;;;;2.20;2.10;;;;;;;;;;1868864;76;26331;-44
2022/08/28 00:24:54;;;;;;;2.27;2.17;;;;;;;;;;1856994;76;26291;-46
2022/08/28 00:30:07;;;;;;;2.10;2.00;;;;;;;;;;1878910;76;26214;-45
2022/08/28 00:32:35;;;;;;;2.40;2.20;;;;;;;;;;1877133;75;26280;-46
2022/08/28 00:35:02;;;;;;;2.10;2.00;;;;;;;;;;1878161;76;26249;-45
2022/08/28 00:37:29;;;;;;;2.02;2.02;;;;;;;;;;1870243;76;26249;-48
2022/08/28 00:39:57;;;;;;;2.37;2.27;;;;;;;;;;1868574;76;26254;-46
2022/08/28 00:42:24;;;;;;;2.20;2.10;;;;;;;;;;1871817;76;26198;-43
2022/08/28 00:44:51;;;;;;;2.00;2.00;;;;;;;;;;1875020;76;25788;-47
2022/08/28 00:47:19;;;;;;;2.12;2.02;;;;;;;;;;1874910;76;27033;-45
2022/08/28 00:49:50;;;;;;;2.05;2.02;;;;;;;;;;1875342;76;26229;-45
2022/08/28 00:52:19;;;;;;;1.90;1.90;;;;;;;;;;1874734;76;26306;-48
2022/08/28 00:54:54;;;;;;;2.30;2.10;;;;;;;;;;1871245;76;26261;-45
2022/08/28 00:57:22;;;;;;;2.00;1.95;;;;;;;;;;1868539;76;26883;-43
2022/08/28 00:59:50;;;;;;;2.08;1.80;;;;;;;;;;1850066;76;26946;-44
2022/08/28 01:02:17;;;;;;;1.85;1.80;;;;;;;;;;1873365;76;26256;-46
2022/08/28 01:04:45;;;;;;;2.05;2.00;;;;;;;;;;1871452;76;26406;-48
2022/08/28 01:07:13;;;;;;;1.62;1.62;;;;;;;;;;1859110;76;26812;-46
2022/08/28 01:09:42;;;;;;;1.90;1.80;;;;;;;;;;1857816;76;26765;-45
2022/08/28 01:12:11;;;;;;;1.95;1.85;;;;;;;;;;1854658;76;26216;-44
2022/08/28 01:14:40;;;;;;;1.80;1.80;;;;;;;;;;1873969;76;27207;-44
2022/08/28 01:17:08;;;;;;;1.50;1.50;;;;;;;;;;1878249;76;26257;-45
2022/08/28 01:19:55;;;;;;;1.77;1.77;;;;;;;;;;1872242;76;26300;-45
2022/08/28 01:22:19;;;;;;;1.40;1.40;;;;;;;;;;1855497;76;26348;-43
2022/08/28 01:24:47;;;;;;;1.60;1.60;;;;;;;;;;1863792;76;26331;-44
2022/08/28 01:27:15;;;;;;;1.50;1.50;;;;;;;;;;1846630;76;26810;-43
2022/08/28 01:29:42;;;;;;;1.50;1.50;;;;;;;;;;1858107;76;26332;-44
2022/08/28 01:32:10;;;;;;;1.60;1.60;;;;;;;;;;1873471;76;26249;-45
2022/08/28 01:34:37;;;;;;;1.80;1.70;;;;;;;;;;1860475;76;27534;-44
2022/08/28 01:37:05;;;;;;;1.70;1.60;;;;;;;;;;1864696;76;27389;-44
2022/08/28 01:39:32;;;;;;;1.30;1.30;;;;;;;;;;1875982;76;26261;-44
2022/08/28 01:42:01;;;;;;;1.45;1.45;;;;;;;;;;1878011;76;26406;-47
2022/08/28 01:44:28;;;;;;;1.40;1.40;;;;;;;;;;1868467;76;26397;-45
2022/08/28 01:46:57;;;;;;;1.50;1.40;;;;;;;;;;1876998;76;26321;-44
2022/08/28 01:49:28;;;;;;;1.40;1.40;;;;;;;;;;1856203;76;26326;-43
2022/08/28 01:51:53;;;;;;;1.20;1.20;;;;;;;;;;1877364;76;26321;-43
2022/08/28 01:54:20;;;;;;;1.30;1.30;;;;;;;;;;1870009;76;26281;-46
2022/08/28 01:56:48;;;;;;;1.20;1.20;;;;;;;;;;1863754;76;26230;-43
2022/08/28 01:59:15;;;;;;;1.10;1.10;;;;;;;;;;1877763;76;26315;-43
2022/08/28 02:01:42;;;;;;;1.52;1.30;;;;;;;;;;1870861;76;27445;-44
2022/08/28 02:04:10;;;;;;;1.10;1.10;;;;;;;;;;1872636;76;26245;-46
2022/08/28 02:06:38;;;;;;;1.20;1.20;;;;;;;;;;1862996;76;26257;-44
2022/08/28 02:09:06;;;;;;;1.00;1.00;;;;;;;;;;1873378;76;26264;-43
2022/08/28 02:11:34;;;;;;;1.00;1.00;;;;;;;;;;1866792;76;26658;-47
2022/08/28 02:14:01;;;;;;;0.98;0.98;;;;;;;;;;1867920;76;26274;-43
2022/08/28 02:16:29;;;;;;;1.20;1.20;;;;;;;;;;1869968;75;26291;-45
2022/08/28 02:18:56;;;;;;;0.98;0.98;;;;;;;;;;1848322;76;26212;-45
2022/08/28 02:21:24;;;;;;;0.90;0.90;;;;;;;;;;1865618;76;26586;-46
2022/08/28 02:23:51;;;;;;;0.90;0.90;;;;;;;;;;1851229;76;26751;-43
2022/08/28 02:26:19;;;;;;;0.98;0.98;;;;;;;;;;1848512;76;26829;-44
2022/08/28 02:28:47;;;;;;;0.90;0.90;;;;;;;;;;1854677;76;26285;-43
2022/08/28 02:31:14;;;;;;;0.90;0.90;;;;;;;;;;1872300;76;26295;-44
2022/08/28 02:33:43;;;;;;;0.90;0.90;;;;;;;;;;1855058;75;26254;-45
2022/08/28 02:36:11;;;;;;;1.37;0.90;;;;;;;;;;1879624;76;26269;-44
2022/08/28 02:38:39;;;;;;;0.80;0.80;;;;;;;;;;1877378;76;26677;-47
2022/08/28 02:41:06;;;;;;;0.90;0.90;;;;;;;;;;1872317;76;26249;-46
2022/08/28 02:43:34;;;;;;;0.85;0.85;;;;;;;;;;1864933;75;26265;-46
2022/08/28 02:46:01;;;;;;;0.80;0.80;;;;;;;;;;1865838;75;26549;-45
2022/08/28 02:48:30;;;;;;;0.82;0.80;;;;;;;;;;1875165;76;26278;-44
2022/08/28 02:50:59;;;;;;;0.80;0.80;;;;;;;;;;1865745;76;26300;-46
2022/08/28 02:53:27;;;;;;;0.80;0.80;;;;;;;;;;1871747;76;26752;-45
2022/08/28 02:55:54;;;;;;;0.90;0.90;;;;;;;;;;1876421;76;26269;-45
2022/08/28 02:58:22;;;;;;;0.80;0.80;;;;;;;;;;1877653;76;26720;-45
2022/08/28 03:00:50;;;;;;;1.00;1.00;;;;;;;;;;1856941;76;26277;-45
2022/08/28 03:03:17;;;;;;;0.88;0.88;;;;;;;;;;1867375;76;26342;-44
2022/08/28 03:05:44;;;;;;;0.90;0.90;;;;;;;;;;1859191;76;26249;-43
2022/08/28 03:08:12;;;;;;;0.80;0.80;;;;;;;;;;1878494;76;26831;-43
2022/08/28 03:10:40;;;;;;;0.80;0.80;;;;;;;;;;1869071;76;26257;-45
2022/08/28 03:13:08;;;;;;;0.80;0.80;;;;;;;;;;1873273;76;26712;-46
2022/08/28 03:15:36;;;;;;;0.70;0.70;;;;;;;;;;1874425;75;26292;-45
2022/08/28 03:18:03;;;;;;;0.80;0.80;;;;;;;;;;1868063;76;26267;-44
2022/08/28 03:20:30;;;;;;;0.70;0.70;;;;;;;;;;1877712;76;26241;-43
2022/08/28 03:25:43;;;;;;;0.82;0.82;;;;;;;;;;1859442;76;26264;-44
2022/08/28 03:28:11;;;;;;;0.70;0.70;;;;;;;;;;1866656;75;27059;-43
2022/08/28 03:30:38;;;;;;;0.80;0.80;;;;;;;;;;1838750;77;26323;-43
2022/08/28 03:33:05;;;;;;;0.70;0.70;;;;;;;;;;1874012;76;26301;-43
2022/08/28 03:35:33;;;;;;;0.72;0.72;;;;;;;;;;1861615;76;26358;-44
2022/08/28 03:38:00;;;;;;;0.85;0.85;;;;;;;;;;1854664;76;26279;-47
2022/08/28 03:40:28;;;;;;;0.85;0.85;;;;;;;;;;1841435;77;26326;-44
2022/08/28 03:42:55;;;;;;;0.70;0.70;;;;;;;;;;1865861;76;26260;-44
2022/08/28 03:45:23;;;;;;;0.70;0.70;;;;;;;;;;1857071;76;26274;-45
2022/08/28 03:47:50;;;;;;;0.80;0.80;;;;;;;;;;1840646;77;26249;-44
2022/08/28 03:50:18;;;;;;;0.80;0.80;;;;;;;;;;1869393;76;26398;-46
2022/08/28 03:52:45;;;;;;;0.70;0.70;;;;;;;;;;1860317;76;26404;-47
2022/08/28 03:55:12;;;;;;;0.90;0.90;;;;;;;;;;1848424;76;26872;-44
2022/08/28 03:57:40;;;;;;;0.88;0.88;;;;;;;;;;1848169;77;26720;-45
2022/08/28 04:00:09;;;;;;;0.75;0.75;;;;;;;;;;1846089;76;26218;-44
2022/08/28 04:02:36;;;;;;;0.70;0.70;;;;;;;;;;1833462;76;26220;-45
2022/08/28 04:05:04;;;;;;;0.75;0.75;;;;;;;;;;1822707;76;26282;-45
2022/08/28 04:07:31;;;;;;;0.80;0.80;;;;;;;;;;1827826;76;26337;-46
2022/08/28 04:09:59;;;;;;;0.68;0.68;;;;;;;;;;1840975;76;26326;-46
2022/08/28 04:12:26;;;;;;;0.80;0.80;;;;;;;;;;1818588;77;26271;-47
2022/08/28 04:14:54;;;;;;;0.90;0.90;;;;;;;;;;1824407;76;26307;-49
2022/08/28 04:17:21;;;;;;;0.88;0.80;;;;;;;;;;1859526;76;26734;-46
2022/08/28 04:19:50;;;;;;;0.80;0.80;;;;;;;;;;1826094;76;26794;-48
2022/08/28 04:22:17;;;;;;;0.80;0.80;;;;;;;;;;1818473;77;26707;-46
2022/08/28 04:24:44;;;;;;;0.80;0.80;;;;;;;;;;1829423;76;26815;-43
2022/08/28 04:27:13;;;;;;;0.72;0.72;;;;;;;;;;1834171;76;26330;-48
2022/08/28 04:29:41;;;;;;;0.80;0.80;;;;;;;;;;1827932;77;26276;-50
2022/08/28 04:32:08;;;;;;;0.72;0.72;;;;;;;;;;1827563;77;26384;-48
2022/08/28 04:34:37;;;;;;;0.70;0.70;;;;;;;;;;1840524;76;26347;-50
2022/08/28 04:37:05;;;;;;;0.80;0.80;;;;;;;;;;1837620;77;26253;-47
2022/08/28 04:39:32;;;;;;;0.90;0.90;;;;;;;;;;1828398;77;26690;-44
2022/08/28 04:42:00;;;;;;;0.80;0.80;;;;;;;;;;1821872;77;26345;-44
2022/08/28 04:44:27;;;;;;;0.78;0.78;;;;;;;;;;1838433;76;27009;-48
2022/08/28 04:46:55;;;;;;;0.80;0.80;;;;;;;;;;1822213;76;26251;-46
2022/08/28 04:49:22;;;;;;;0.80;0.80;;;;;;;;;;1841065;76;26265;-45
2022/08/28 04:51:50;;;;;;;0.82;0.82;;;;;;;;;;1832511;76;26341;-44
2022/08/28 04:54:17;;;;;;;0.85;0.85;;;;;;;;;;1864371;76;26745;-44
2022/08/28 04:56:45;;;;;;;0.90;0.90;;;;;;;;;;1869279;76;26236;-44
2022/08/28 04:59:13;;;;;;;0.80;0.80;;;;;;;;;;1867926;76;26798;-44
2022/08/28 05:01:41;;;;;;;0.90;0.90;;;;;;;;;;1866383;76;26311;-46
2022/08/28 05:04:10;;;;;;;0.82;0.82;;;;;;;;;;1874567;76;26642;-44
2022/08/28 05:06:44;;;;;;;0.80;0.80;;;;;;;;;;1875813;76;26801;-45
2022/08/28 05:09:07;;;;;;;0.90;0.90;;;;;;;;;;1863199;76;26282;-45
2022/08/28 05:11:35;;;;;;;0.75;0.75;;;;;;;;;;1860046;76;26327;-44
2022/08/28 05:14:03;;;;;;;0.80;0.80;;;;;;;;;;1862342;76;27346;-44
2022/08/28 05:16:31;;;;;;;0.78;0.78;;;;;;;;;;1863215;76;26386;-45
2022/08/28 05:18:59;;;;;;;0.80;0.80;;;;;;;;;;1861626;76;26818;-45
2022/08/28 05:21:27;;;;;;;1.45;0.80;;;;;;;;;;1862159;76;26278;-48
2022/08/28 05:23:56;;;;;;;0.93;0.93;;;;;;;;;;1854119;76;26333;-46
2022/08/28 05:26:23;;;;;;;0.80;0.80;;;;;;;;;;1855417;76;26892;-45
2022/08/28 05:28:50;;;;;;;0.90;0.90;;;;;;;;;;1848014;76;26874;-45
2022/08/28 05:31:19;;;;;;;0.85;0.85;;;;;;;;;;1866751;76;26851;-46
2022/08/28 05:33:48;;;;;;;0.75;0.75;;;;;;;;;;1850433;76;27389;-44
2022/08/28 05:36:16;;;;;;;1.00;1.00;;;;;;;;;;1860781;76;26271;-44
2022/08/28 05:38:43;;;;;;;0.90;0.90;;;;;;;;;;1847443;76;26436;-45
2022/08/28 05:41:11;;;;;;;0.80;0.80;;;;;;;;;;1855955;76;26715;-44
2022/08/28 05:43:38;;;;;;;0.80;0.80;;;;;;;;;;1851699;76;26329;-46
2022/08/28 05:46:11;;;;;;;0.75;0.75;;;;;;;;;;1872319;76;26472;-45
2022/08/28 05:48:37;;;;;;;0.60;0.60;;;;;;;;;;1874392;76;26406;-45
2022/08/28 05:51:05;;;;;;;0.80;0.80;;;;;;;;;;1852148;76;26247;-45
2022/08/28 05:53:39;;;;;;;0.80;0.80;;;;;;;;;;1859600;76;27348;-44
2022/08/28 05:56:06;;;;;;;0.80;0.80;;;;;;;;;;1864777;76;26425;-44
2022/08/28 05:58:34;;;;;;;0.80;0.80;;;;;;;;;;1860587;76;26241;-44
2022/08/28 06:01:06;;;;;;;0.70;0.70;;;;;;;;;;1857145;76;26325;-43
2022/08/28 06:03:34;;;;;;;0.80;0.80;;;;;;;;;;1865087;76;26355;-43
2022/08/28 06:06:02;;;;;;;0.88;0.88;;;;;;;;;;1859441;76;26254;-44
2022/08/28 06:08:30;;;;;;;0.70;0.70;;;;;;;;;;1867062;76;26701;-46
2022/08/28 06:11:00;;;;;;;1.95;0.90;;;;;;;;;;1870009;76;26380;-44
2022/08/28 06:13:28;;;;;;;0.80;0.80;;;;;;;;;;1857904;76;26790;-43
2022/08/28 06:15:55;;;;;;;0.95;0.90;;;;;;;;;;1861587;76;26292;-45
2022/08/28 06:18:23;;;;;;;1.27;1.02;;;;;;;;;;1859923;76;26249;-46
2022/08/28 06:20:51;;;;;;;2.55;1.10;;;;;;;;;;1864951;76;26281;-44
2022/08/28 06:23:19;;;;;;;2.87;1.00;;;;;;;;;;1851719;76;26819;-44
2022/08/28 06:25:48;;;;;;;0.90;0.90;;;;;;;;;;1864817;76;26307;-44
2022/08/28 06:28:16;;;;;;;1.00;1.00;;;;;;;;;;1856349;76;26284;-47
2022/08/28 06:30:44;;;;;;;1.07;1.07;;;;;;;;;;1855142;76;27058;-45
2022/08/28 06:33:12;;;;;;;1.37;1.10;;;;;;;;;;1870435;76;26269;-48
2022/08/28 06:35:40;;;;;;;4.22;1.10;;;;;;;;;;1862268;76;26756;-45
2022/08/28 06:38:08;;;;;;;1.20;1.10;;;;;;;;;;1859208;76;26797;-47
2022/08/28 06:40:40;;;;;;;1.57;1.00;;;;;;;;;;1866432;76;26377;-44
2022/08/28 06:43:07;;;;;;;1.00;1.00;;;;;;;;;;1857656;76;27401;-42
2022/08/28 06:45:35;;;;;;;0.95;0.95;;;;;;;;;;1856875;76;26295;-47
2022/08/28 06:48:02;;;;;;;0.98;0.90;;;;;;;;;;1854359;76;26311;-44
2022/08/28 06:50:29;;;;;;;1.22;1.10;;;;;;;;;;1855404;76;26274;-45
2022/08/28 06:52:57;;;;;;;2.85;1.00;;;;;;;;;;1858536;76;26264;-45
2022/08/28 06:55:25;;;;;;;2.15;1.20;;;;;;;;;;1852338;76;26340;-45
2022/08/28 06:57:52;;;;;;;1.40;1.12;;;;;;;;;;1837095;76;26267;-45
2022/08/28 07:00:20;;;;;;;1.35;1.22;;;;;;;;;;1845973;76;26720;-45
2022/08/28 07:02:47;;;;;;;1.20;1.10;;;;;;;;;;1844989;76;26279;-46
2022/08/28 07:05:14;;;;;;;1.27;1.20;;;;;;;;;;1844231;76;26211;-45
2022/08/28 07:07:42;;;;;;;1.85;1.35;;;;;;;;;;1838750;77;26267;-45
2022/08/28 07:10:09;;;;;;;1.52;1.05;;;;;;;;;;1847799;77;26712;-47
2022/08/28 07:12:37;;;;;;;1.75;1.25;;;;;;;;;;1836925;77;26274;-47
2022/08/28 07:15:04;;;;;;;1.62;1.20;;;;;;;;;;1834701;77;26256;-45
2022/08/28 07:17:32;;;;;;;2.75;1.30;;;;;;;;;;1843079;76;26743;-46
2022/08/28 07:19:59;;;;;;;1.62;1.27;;;;;;;;;;1835721;76;25687;-46
2022/08/28 07:22:26;;;;;;;1.37;1.20;;;;;;;;;;1839781;77;26768;-47
2022/08/28 07:24:54;;;;;;;1.57;1.00;;;;;;;;;;1846414;77;26808;-44
2022/08/28 07:27:21;;;;;;;1.30;1.20;;;;;;;;;;1827507;77;26299;-46
2022/08/28 07:29:49;;;;;;;1.25;1.12;;;;;;;;;;1835842;77;26738;-44
2022/08/28 07:32:17;;;;;;;1.00;1.00;;;;;;;;;;1842766;76;26384;-44
2022/08/28 07:34:45;;;;;;;1.05;0.98;;;;;;;;;;1831647;77;26298;-46
2022/08/28 07:37:12;;;;;;;1.00;1.00;;;;;;;;;;1840792;76;26236;-47
2022/08/28 07:39:39;;;;;;;1.00;1.00;;;;;;;;;;1848663;77;26289;-45
2022/08/28 07:42:07;;;;;;;1.50;1.10;;;;;;;;;;1847978;77;26261;-51
2022/08/28 07:44:49;;;;;;;1.35;1.30;;;;;;;;;;1835497;77;26286;-49
2022/08/28 07:47:18;;;;;;;2.83;1.02;;;;;;;;;;1844361;77;26268;-43
2022/08/28 07:49:46;;;;;;;1.82;1.22;;;;;;;;;;1847301;77;26310;-43
2022/08/28 07:52:13;;;;;;;4.08;1.30;;;;;;;;;;1836435;77;26264;-43
2022/08/28 07:54:40;;;;;;;1.35;1.10;;;;;;;;;;1850581;76;26374;-44
2022/08/28 07:57:11;;;;;;;1.32;1.10;;;;;;;;;;1872955;76;27344;-44
2022/08/28 07:59:39;;;;;;;1.25;1.10;;;;;;;;;;1874354;76;26338;-44
2022/08/28 08:02:07;;;;;;;3.17;1.20;;;;;;;;;;1877318;76;26323;-44
2022/08/28 08:04:34;;;;;;;3.72;1.00;;;;;;;;;;1877562;76;27291;-43
2022/08/28 08:07:02;;;;;;;9.98;1.47;;;;;;;;;;1867176;76;26874;-45
2022/08/28 08:09:30;;;;;;;3.75;1.20;;;;;;;;;;1868731;76;26741;-44
2022/08/28 08:11:57;;;;;;;4.70;1.10;;;;;;;;;;1868017;76;27240;-41
2022/08/28 08:14:24;;;;;;;11.28;1.40;;;;;;;;;;1867496;76;26387;-45
2022/08/28 08:16:52;;;;;;;3.55;1.52;;;;;;;;;;1860850;76;26366;-43
2022/08/28 08:19:19;;;;;;;1.98;1.20;;;;;;;;;;1868858;75;26334;-43
2022/08/28 08:21:47;;;;;;;3.40;1.20;;;;;;;;;;1864076;76;27299;-41
2022/08/28 08:24:19;;;;;;;2.30;1.10;;;;;;;;;;1861973;76;26329;-43
2022/08/28 08:26:44;;;;;;;1.20;1.10;;;;;;;;;;1866380;76;26305;-44
2022/08/28 08:29:12;;;;;;;1.87;1.30;;;;;;;;;;1862247;75;26758;-42
2022/08/28 08:31:40;;;;;;;2.47;1.20;;;;;;;;;;1862081;76;26308;-45
2022/08/28 08:34:08;;;;;;;1.12;1.10;;;;;;;;;;1863511;76;26377;-42
2022/08/28 08:36:36;;;;;;;6.17;1.05;;;;;;;;;;1860325;75;26279;-41
2022/08/28 08:39:05;;;;;;;1.10;1.10;;;;;;;;;;1863794;76;26580;-46
2022/08/28 08:41:42;;;;;;;1.05;0.98;;;;;;;;;;1862013;76;26733;-48
2022/08/28 08:44:10;;;;;;;1.30;1.12;;;;;;;;;;1867565;76;26306;-48
2022/08/28 08:46:39;;;;;;;1.92;1.40;;;;;;;;;;1860422;76;26266;-43
2022/08/28 08:49:08;;;;;;;3.33;1.20;;;;;;;;;;1872278;76;26311;-45
2022/08/28 08:51:37;;;;;;;1.30;1.20;;;;;;;;;;1857989;75;26329;-42
2022/08/28 08:54:06;;;;;;;1.50;1.37;;;;;;;;;;1853348;76;27414;-42
2022/08/28 08:56:33;;;;;;;1.42;1.02;;;;;;;;;;1869275;76;26753;-46
2022/08/28 08:59:02;;;;;;;1.10;1.10;;;;;;;;;;1863933;76;26335;-46
2022/08/28 09:01:31;;;;;;;1.30;1.10;;;;;;;;;;1857225;76;26249;-43
2022/08/28 09:04:00;;;;;;;1.10;1.10;;;;;;;;;;1865678;76;26744;-47
2022/08/28 09:06:41;;;;;;;1.30;1.20;;;;;;;;;;1863286;76;26726;-45
2022/08/28 09:09:10;;;;;;;1.75;1.25;;;;;;;;;;1862443;76;26319;-44
2022/08/28 09:11:57;;;;;;;1.25;1.15;;;;;;;;;;1862348;76;26326;-44
2022/08/28 09:14:42;;;;;;;1.80;1.10;;;;;;;;;;1858812;76;26292;-44
2022/08/28 09:17:11;;;;;;;0.82;0.82;;;;;;;;;;1866745;76;26784;-44
2022/08/28 09:19:38;;;;;;;1.35;1.20;;;;;;;;;;1858456;76;26256;-49
2022/08/28 09:22:06;;;;;;;1.00;0.95;;;;;;;;;;1867345;75;26249;-44
2022/08/28 09:24:37;;;;;;;2.75;1.15;;;;;;;;;;1865926;75;26640;-54
2022/08/28 09:27:09;;;;;;;1.35;1.00;;;;;;;;;;1871599;76;26374;-45
2022/08/28 09:29:42;;;;;;;1.17;1.12;;;;;;;;;;1858957;76;26334;-52
2022/08/28 09:32:17;;;;;;;1.30;1.20;;;;;;;;;;1869091;76;26824;-46
2022/08/28 09:35:05;;;;;;;1.22;1.10;;;;;;;;;;1876804;75;26806;-46
2022/08/28 09:37:34;;;;;;;1.20;1.10;;;;;;;;;;1865678;76;26396;-49
2022/08/28 09:40:02;;;;;;;4.08;1.10;;;;;;;;;;1875580;75;26560;-45
2022/08/28 09:45:19;;;;;;;1.92;1.12;;;;;;;;;;1868127;75;26851;-43
2022/08/28 09:47:47;;;;;;;1.80;1.00;;;;;;;;;;1858846;75;26410;-51
2022/08/28 09:50:28;;;;;;;1.50;0.95;;;;;;;;;;1869921;75;26269;-45
2022/08/28 09:52:57;;;;;;;1.57;1.05;;;;;;;;;;1868049;75;26250;-44
2022/08/28 09:55:26;;;;;;;2.33;1.00;;;;;;;;;;1868957;76;26277;-41
2022/08/28 09:57:53;;;;;;;1.12;0.93;;;;;;;;;;1877681;75;26300;-44
2022/08/28 10:00:21;;;;;;;2.12;1.10;;;;;;;;;;1865145;76;26301;-50
2022/08/28 10:02:50;;;;;;;4.08;0.90;;;;;;;;;;1863404;76;26308;-44
2022/08/28 10:05:19;;;;;;;1.45;1.00;;;;;;;;;;1864042;76;26339;-43
2022/08/28 10:07:48;;;;;;;2.17;0.90;;;;;;;;;;1865931;76;26324;-44
2022/08/28 10:10:17;;;;;;;3.05;1.00;;;;;;;;;;1865704;75;26269;-48
2022/08/28 10:12:49;;;;;;;1.45;0.80;;;;;;;;;;1867138;75;26760;-45
2022/08/28 10:15:20;;;;;;;1.05;0.88;;;;;;;;;;1872307;76;26297;-47
2022/08/28 10:18:07;;;;;;;1.87;0.85;;;;;;;;;;1872753;75;26340;-43
2022/08/28 10:20:36;;;;;;;3.85;0.78;;;;;;;;;;1865695;76;26288;-42
2022/08/28 10:23:05;;;;;;;0.98;0.80;;;;;;;;;;1869679;75;26280;-43
2022/08/28 10:25:40;;;;;;;0.85;0.85;;;;;;;;;;1864336;75;26725;-44
2022/08/28 10:28:11;;;;;;;0.68;0.68;;;;;;;;;;1870328;75;26308;-45
2022/08/28 10:30:40;;;;;;;0.78;0.78;;;;;;;;;;1868628;76;26312;-42
2022/08/28 10:33:18;;;;;;;0.80;0.80;;;;;;;;;;1868583;75;26276;-44
2022/08/28 10:35:50;;;;;;;0.85;0.80;;;;;;;;;;1880109;75;26346;-44
2022/08/28 10:38:20;;;;;;;0.70;0.70;;;;;;;;;;1875747;76;26340;-48
2022/08/28 10:41:07;;;;;;;0.60;0.60;;;;;;;;;;1865013;76;26332;-50
2022/08/28 10:43:36;;;;;;;0.55;0.55;;;;;;;;;;1851501;75;27380;-46
2022/08/28 10:46:04;;;;;;;1.00;0.65;;;;;;;;;;1860338;76;26779;-48
2022/08/28 10:48:33;;;;;;;0.60;0.60;;;;;;;;;;1873791;76;26717;-45
2022/08/28 10:51:02;;;;;;;0.60;0.60;;;;;;;;;;1863140;75;26767;-46
2022/08/28 10:53:34;;;;;;;0.50;0.50;;;;;;;;;;1865785;76;26772;-44
2022/08/28 10:56:02;;;;;;;0.65;0.65;;;;;;;;;;1865241;76;26316;-44
2022/08/28 10:58:30;;;;;;;2.47;0.72;;;;;;;;;;1875481;76;26260;-44
2022/08/28 11:01:02;;;;;;;1.07;0.60;;;;;;;;;;1872181;76;26543;-41
2022/08/28 11:03:31;;;;;;;9.65;0.78;;;;;;;;;;1863189;76;26302;-45
2022/08/28 11:06:00;;;;;;;1.52;0.60;;;;;;;;;;1868359;76;26326;-47
2022/08/28 11:08:29;;;;;;;0.95;0.57;;;;;;;;;;1872438;76;26395;-42
2022/08/28 11:10:59;;;;;;;0.60;0.60;;;;;;;;;;1873599;76;26186;-44
2022/08/28 11:13:45;;;;;;;0.60;0.60;;;;;;;;;;1862161;75;26359;-41
2022/08/28 11:16:13;;;;;;;0.70;0.70;;;;;;;;;;1870831;75;26253;-45
2022/08/28 11:18:48;;;;;;;0.70;0.70;;;;;;;;;;1871965;75;26260;-47
2022/08/28 11:21:20;;;;;;;0.57;0.57;;;;;;;;;;1863802;75;26286;-41
2022/08/28 11:23:49;;;;;;;1.47;0.65;;;;;;;;;;1865314;75;26398;-46
2022/08/28 11:26:18;;;;;;;1.95;0.50;;;;;;;;;;1864480;76;26250;-44
2022/08/28 11:28:46;;;;;;;0.45;0.45;;;;;;;;;;1861294;76;26073;-46
2022/08/28 11:31:15;;;;;;;0.50;0.50;;;;;;;;;;1873051;75;26243;-43
2022/08/28 11:33:51;;;;;;;3.80;0.70;;;;;;;;;;1871248;76;26318;-45
2022/08/28 11:36:24;;;;;;;0.50;0.50;;;;;;;;;;1859100;76;26298;-46
2022/08/28 11:38:53;;;;;;;0.50;0.50;;;;;;;;;;1872680;76;26337;-46
2022/08/28 11:41:23;;;;;;;0.60;0.60;;;;;;;;;;1867603;76;26315;-45
2022/08/28 11:43:51;;;;;;;0.70;0.70;;;;;;;;;;1868160;76;26253;-46
2022/08/28 11:46:26;;;;;;;0.60;0.60;;;;;;;;;;1860213;76;26263;-47
2022/08/28 11:48:55;;;;;;;1.55;0.60;;;;;;;;;;1877509;76;26752;-48
2022/08/28 11:51:36;;;;;;;0.75;0.60;;;;;;;;;;1853637;76;26313;-49
2022/08/28 11:54:16;;;;;;;1.05;0.55;;;;;;;;;;1874827;76;26289;-48
2022/08/28 11:56:48;;;;;;;0.60;0.60;;;;;;;;;;1876323;76;26257;-47
2022/08/28 11:59:20;;;;;;;0.53;0.50;;;;;;;;;;1867787;75;26752;-47
2022/08/28 12:01:48;;;;;;;0.55;0.55;;;;;;;;;;1870092;76;26797;-47
2022/08/28 12:04:19;;;;;;;1.67;0.70;;;;;;;;;;1870062;76;26417;-45
2022/08/28 12:07:05;;;;;;;0.47;0.47;;;;;;;;;;1876282;76;26594;-47
2022/08/28 12:09:37;;;;;;;0.50;0.50;;;;;;;;;;1874089;76;26331;-48
2022/08/28 12:12:06;;;;;;;0.50;0.50;;;;;;;;;;1861601;76;26296;-51
2022/08/28 12:14:41;;;;;;;0.72;0.72;;;;;;;;;;1855329;76;26198;-50
2022/08/28 12:17:19;;;;;;;0.65;0.65;;;;;;;;;;1858062;76;26640;-50
2022/08/28 12:19:47;;;;;;;0.60;0.60;;;;;;;;;;1867876;76;26305;-45
2022/08/28 12:22:16;;;;;;;0.50;0.50;;;;;;;;;;1872419;76;26350;-44
2022/08/28 12:24:45;;;;;;;0.40;0.40;;;;;;;;;;1821366;77;26267;-46
2022/08/28 12:27:13;;;;;;;0.50;0.50;;;;;;;;;;1871471;76;26305;-48
2022/08/28 12:29:44;;;;;;;0.70;0.70;;;;;;;;;;1867223;76;27476;-50
2022/08/28 12:32:17;;;;;;;0.62;0.62;;;;;;;;;;1866826;76;26262;-44
2022/08/28 12:34:49;;;;;;;0.57;0.57;;;;;;;;;;1870512;76;26330;-49
2022/08/28 12:37:35;;;;;;;0.60;0.60;;;;;;;;;;1863350;76;26266;-44
2022/08/28 12:40:05;;;;;;;0.70;0.68;;;;;;;;;;1857676;76;26322;-44
2022/08/28 12:42:34;;;;;;;0.60;0.60;;;;;;;;;;1861481;76;26354;-41
2022/08/28 12:45:04;;;;;;;0.60;0.60;;;;;;;;;;1864309;75;26599;-42
2022/08/28 12:47:32;;;;;;;0.60;0.60;;;;;;;;;;1867357;76;26395;-44
2022/08/28 12:50:01;;;;;;;0.60;0.60;;;;;;;;;;1864158;76;26316;-42
2022/08/28 12:52:28;;;;;;;0.42;0.42;;;;;;;;;;1863666;76;26335;-42
2022/08/28 12:54:57;;;;;;;0.47;0.47;;;;;;;;;;1861181;76;26264;-41
2022/08/28 12:57:24;;;;;;;0.60;0.60;;;;;;;;;;1859397;76;26289;-44
2022/08/28 12:59:53;;;;;;;0.50;0.50;;;;;;;;;;1834910;76;26343;-43
2022/08/28 13:02:29;;;;;;;0.78;0.50;;;;;;;;;;1839214;76;26333;-44
2022/08/28 13:04:58;;;;;;;0.65;0.62;;;;;;;;;;1840129;76;26309;-46
2022/08/28 13:07:27;;;;;;;0.60;0.60;;;;;;;;;;1843455;76;26305;-46
2022/08/28 13:09:55;;;;;;;0.62;0.62;;;;;;;;;;1840861;76;26772;-43
2022/08/28 13:12:30;;;;;;;1.45;0.60;;;;;;;;;;1840375;76;26253;-42
2022/08/28 13:14:57;;;;;;;0.50;0.50;;;;;;;;;;1833900;76;26365;-45
2022/08/28 13:17:45;;;;;;;0.50;0.50;;;;;;;;;;1841809;76;26280;-42
2022/08/28 13:20:14;;;;;;;0.50;0.50;;;;;;;;;;1841923;76;27381;-47
2022/08/28 13:22:41;;;;;;;0.40;0.40;;;;;;;;;;1842400;76;26332;-43
2022/08/28 13:25:08;;;;;;;0.40;0.40;;;;;;;;;;1832082;76;26289;-43
2022/08/28 13:27:36;;;;;;;0.70;0.70;;;;;;;;;;1843775;76;26183;-46
2022/08/28 13:30:08;;;;;;;0.60;0.60;;;;;;;;;;1834148;76;27594;-45
2022/08/28 13:32:37;;;;;;;0.82;0.60;;;;;;;;;;1842565;76;26338;-46
2022/08/28 13:35:09;;;;;;;2.00;0.60;;;;;;;;;;1839842;77;26346;-47
2022/08/28 13:37:42;;;;;;;1.98;0.68;;;;;;;;;;1834907;76;26293;-47
2022/08/28 13:40:10;;;;;;;0.50;0.50;;;;;;;;;;1835685;77;26370;-46
2022/08/28 13:42:37;;;;;;;3.95;0.60;;;;;;;;;;1833217;76;26281;-45
2022/08/28 13:45:05;;;;;;;0.50;0.50;;;;;;;;;;1847052;76;26237;-45
2022/08/28 13:47:32;;;;;;;0.53;0.53;;;;;;;;;;1846395;76;26789;-48
2022/08/28 13:50:00;;;;;;;0.85;0.65;;;;;;;;;;1843552;76;26886;-46
2022/08/28 13:52:27;;;;;;;1.42;0.50;;;;;;;;;;1837290;76;26312;-47
2022/08/28 13:54:54;;;;;;;1.00;0.65;;;;;;;;;;1833790;77;26250;-46
2022/08/28 13:57:23;;;;;;;1.27;0.62;;;;;;;;;;1828648;76;26254;-49
2022/08/28 13:59:50;;;;;;;0.40;0.40;;;;;;;;;;1832868;76;26552;-46
2022/08/28 14:05:03;;;;;;;0.70;0.60;;;;;;;;;;1834208;77;26419;-48
2022/08/28 14:07:30;;;;;;;0.60;0.60;;;;;;;;;;1828851;77;26287;-47
2022/08/28 14:09:58;;;;;;;0.60;0.60;;;;;;;;;;1829132;77;26524;-48
2022/08/28 14:12:25;;;;;;;0.50;0.50;;;;;;;;;;1838766;77;26267;-48
2022/08/28 14:14:52;;;;;;;0.40;0.40;;;;;;;;;;1837103;77;26288;-50
2022/08/28 14:17:20;;;;;;;0.40;0.40;;;;;;;;;;1835611;77;26732;-50
2022/08/28 14:19:50;;;;;;;1.22;0.40;;;;;;;;;;1841109;77;26592;-46
2022/08/28 14:22:17;;;;;;;0.55;0.40;;;;;;;;;;1826271;77;26254;-44
2022/08/28 14:24:45;;;;;;;0.50;0.50;;;;;;;;;;1823815;77;26748;-48
2022/08/28 14:27:13;;;;;;;0.50;0.50;;;;;;;;;;1832989;77;26260;-48
2022/08/28 14:29:40;;;;;;;0.68;0.50;;;;;;;;;;1839780;77;26326;-45
2022/08/28 14:32:07;;;;;;;0.70;0.70;;;;;;;;;;1838027;77;26271;-44
2022/08/28 14:34:36;;;;;;;1.00;0.30;;;;;;;;;;1844950;77;26276;-49
2022/08/28 14:37:05;;;;;;;0.50;0.50;;;;;;;;;;1829967;77;26330;-45
2022/08/28 14:39:32;;;;;;;0.50;0.50;;;;;;;;;;1837258;77;26583;-45
2022/08/28 14:41:59;;;;;;;1.25;0.60;;;;;;;;;;1838844;77;26323;-44
2022/08/28 14:44:27;;;;;;;0.75;0.57;;;;;;;;;;1831620;77;26312;-46
2022/08/28 14:46:54;;;;;;;0.60;0.60;;;;;;;;;;1837637;77;26294;-47
2022/08/28 14:49:22;;;;;;;0.40;0.40;;;;;;;;;;1842626;77;26296;-44
2022/08/28 14:51:50;;;;;;;0.40;0.40;;;;;;;;;;1834450;77;26255;-48
2022/08/28 14:54:18;;;;;;;0.30;0.30;;;;;;;;;;1838245;77;26269;-46
2022/08/28 14:56:46;;;;;;;0.50;0.50;;;;;;;;;;1840526;77;26249;-45
2022/08/28 14:59:15;;;;;;;0.60;0.60;;;;;;;;;;1859439;76;26289;-46
2022/08/28 15:01:43;;;;;;;0.42;0.40;;;;;;;;;;1876718;75;26257;-45
2022/08/28 15:04:11;;;;;;;1.55;0.40;;;;;;;;;;1872237;75;26910;-46